createdAt,value
2023-01-22T00:01:33.484Z,0.27
2023-01-22T00:04:01.978Z,0.30
2023-01-22T00:06:31.976Z,0.32
2023-01-22T00:09:03.817Z,0.27
2023-01-22T00:11:32.514Z,0.32
2023-01-22T00:14:01.051Z,0.27
2023-01-22T00:16:30.944Z,0.33
2023-01-22T00:18:59.424Z,0.32
2023-01-22T00:21:28.442Z,0.33
2023-01-22T00:23:57.064Z,0.30
2023-01-22T00:26:25.474Z,0.24
2023-01-22T00:28:54.392Z,0.17
2023-01-22T00:31:23.593Z,0.15
2023-01-22T00:33:53.420Z,0.17
2023-01-22T00:36:23.193Z,0.18
2023-01-22T00:38:52.019Z,0.26
2023-01-22T00:41:20.997Z,0.24
2023-01-22T00:43:52.535Z,0.23
2023-01-22T00:46:21.568Z,0.18
2023-01-22T00:48:51.042Z,0.17
2023-01-22T00:51:21.211Z,0.12
2023-01-22T00:53:49.728Z,0.19
2023-01-22T00:56:18.111Z,0.06
2023-01-22T00:58:46.903Z,0.17
2023-01-22T01:01:15.790Z,0.16
2023-01-22T01:03:44.292Z,0.05
2023-01-22T01:06:15.620Z,0.12
2023-01-22T01:08:45.578Z,0.06
2023-01-22T01:11:15.791Z,0.14
2023-01-22T01:13:44.878Z,-0.02
2023-01-22T01:16:15.403Z,0.11
2023-01-22T01:18:44.496Z,0.05
2023-01-22T01:21:13.279Z,0.15
2023-01-22T01:23:42.680Z,0.05
2023-01-22T01:26:15.343Z,0.16
2023-01-22T01:28:45.489Z,0.11
2023-01-22T01:31:16.740Z,0.11
2023-01-22T01:33:45.860Z,0.09
2023-01-22T01:36:16.048Z,0.17
2023-01-22T01:38:44.924Z,0.24
2023-01-22T01:41:16.651Z,0.23
2023-01-22T01:43:45.266Z,0.18
2023-01-22T01:46:19.887Z,0.23
2023-01-22T01:48:52.636Z,0.22
2023-01-22T01:51:26.561Z,0.22
2023-01-22T01:53:55.262Z,0.27
2023-01-22T01:56:30.082Z,0.21
2023-01-22T01:59:03.479Z,0.25
2023-01-22T02:01:32.692Z,0.14
2023-01-22T02:04:01.824Z,0.11
2023-01-22T02:06:30.311Z,0.17
2023-01-22T02:09:00.396Z,0.24
2023-01-22T02:11:31.561Z,0.19
2023-01-22T02:14:04.693Z,0.21
2023-01-22T02:16:33.601Z,0.26
2023-01-22T02:19:02.163Z,0.28
2023-01-22T02:21:40.574Z,0.36
2023-01-22T02:24:11.490Z,0.26
2023-01-22T02:26:41.165Z,0.32
2023-01-22T02:29:11.891Z,0.24
2023-01-22T02:31:42.124Z,0.24
2023-01-22T02:34:12.250Z,0.19
2023-01-22T02:36:41.997Z,0.30
2023-01-22T02:39:10.403Z,0.26
2023-01-22T02:41:38.795Z,0.29
2023-01-22T02:44:07.421Z,0.20
2023-01-22T02:46:36.305Z,0.25
2023-01-22T02:49:04.754Z,0.32
2023-01-22T02:51:33.126Z,0.29
2023-01-22T02:54:02.961Z,0.25
2023-01-22T02:56:34.573Z,0.20
2023-01-22T02:59:03.333Z,0.23
2023-01-22T03:01:31.738Z,0.26
2023-01-22T03:04:10.828Z,0.23
2023-01-22T03:06:41.949Z,0.22
2023-01-22T03:09:13.561Z,0.19
2023-01-22T03:11:44.765Z,0.13
2023-01-22T03:14:32.142Z,0.11
2023-01-22T03:17:18.463Z,0.06
2023-01-22T03:20:04.817Z,0.05
2023-01-22T03:22:33.825Z,0.03
2023-01-22T03:25:03.724Z,-0.02
2023-01-22T03:27:32.966Z,-0.03
2023-01-22T03:30:01.379Z,-0.02
2023-01-22T03:35:12.279Z,0.09
2023-01-22T03:37:40.697Z,0.05
2023-01-22T03:40:12.197Z,0.04
2023-01-22T03:42:40.849Z,-0.01
2023-01-22T03:45:10.599Z,-0.07
2023-01-22T03:47:39.012Z,-0.04
2023-01-22T03:50:08.509Z,-0.11
2023-01-22T03:52:36.977Z,-0.17
2023-01-22T03:55:06.158Z,-0.16
2023-01-22T03:57:35.892Z,-0.15
2023-01-22T04:00:07.296Z,-0.18
2023-01-22T04:02:37.707Z,-0.22
2023-01-22T04:05:07.035Z,-0.21
2023-01-22T04:07:35.478Z,-0.17
2023-01-22T04:10:04.043Z,-0.20
2023-01-22T04:12:32.485Z,-0.29
2023-01-22T04:15:02.415Z,-0.19
2023-01-22T04:17:30.993Z,-0.32
2023-01-22T04:19:59.440Z,-0.21
2023-01-22T04:22:28.005Z,-0.21
2023-01-22T04:24:56.448Z,-0.36
2023-01-22T04:27:24.838Z,-0.25
2023-01-22T04:29:53.507Z,-0.33
2023-01-22T04:32:23.235Z,-0.27
2023-01-22T04:34:51.651Z,-0.31
2023-01-22T04:37:20.022Z,-0.37
2023-01-22T04:39:48.420Z,-0.27
2023-01-22T04:42:17.003Z,-0.24
2023-01-22T04:44:45.407Z,-0.27
2023-01-22T04:47:13.759Z,-0.18
2023-01-22T04:49:43.451Z,-0.25
2023-01-22T04:52:11.883Z,-0.24
2023-01-22T04:54:40.487Z,-0.19
2023-01-22T04:57:08.930Z,-0.31
2023-01-22T04:59:37.317Z,-0.23
2023-01-22T05:02:06.318Z,-0.27
2023-01-22T05:04:34.719Z,-0.27
2023-01-22T05:07:04.636Z,-0.30
2023-01-22T05:09:33.088Z,-0.32
2023-01-22T05:12:01.957Z,-0.32
2023-01-22T05:14:30.410Z,-0.30
2023-01-22T05:16:58.798Z,-0.27
2023-01-22T05:19:27.343Z,-0.23
2023-01-22T05:21:55.789Z,-0.27
2023-01-22T05:24:25.508Z,-0.21
2023-01-22T05:26:53.960Z,-0.29
2023-01-22T05:29:25.587Z,-0.21
2023-01-22T05:31:54.331Z,-0.12
2023-01-22T05:34:22.704Z,-0.25
2023-01-22T05:36:51.114Z,-0.25
2023-01-22T05:39:20.600Z,-0.23
2023-01-22T05:41:51.102Z,-0.21
2023-01-22T05:44:19.636Z,-0.21
2023-01-22T05:46:48.066Z,-0.22
2023-01-22T05:49:16.643Z,-0.20
2023-01-22T05:51:45.075Z,-0.18
2023-01-22T05:54:13.470Z,-0.16
2023-01-22T05:56:41.984Z,-0.19
2023-01-22T05:59:12.529Z,-0.15
2023-01-22T06:01:41.336Z,-0.18
2023-01-22T06:04:09.697Z,-0.20
2023-01-22T06:06:38.114Z,-0.17
2023-01-22T06:09:06.759Z,-0.14
2023-01-22T06:11:35.246Z,-0.15
2023-01-22T06:14:04.037Z,-0.15
2023-01-22T06:16:34.268Z,-0.17
2023-01-22T06:19:03.057Z,-0.16
2023-01-22T06:21:31.488Z,-0.15
2023-01-22T06:23:59.985Z,-0.26
2023-01-22T06:26:28.469Z,-0.20
2023-01-22T06:28:56.963Z,-0.27
2023-01-22T06:31:25.808Z,-0.25
2023-01-22T06:33:55.928Z,-0.29
2023-01-22T06:36:24.654Z,-0.33
2023-01-22T06:38:53.104Z,-0.29
2023-01-22T06:41:21.641Z,-0.25
2023-01-22T06:43:50.235Z,-0.24
2023-01-22T06:46:18.704Z,-0.16
2023-01-22T06:48:49.767Z,-0.19
2023-01-22T06:51:19.842Z,-0.30
2023-01-22T06:53:48.388Z,-0.33
2023-01-22T06:56:17.085Z,-0.31
2023-01-22T06:58:46.128Z,-0.24
2023-01-22T07:01:14.749Z,-0.24
2023-01-22T07:03:43.440Z,-0.26
2023-01-22T07:06:11.937Z,-0.30
2023-01-22T07:08:42.081Z,-0.40
2023-01-22T07:11:10.474Z,-0.31
2023-01-22T07:13:38.860Z,-0.28
2023-01-22T07:16:08.380Z,-0.16
2023-01-22T07:18:36.838Z,-0.23
2023-01-22T07:21:06.534Z,-0.28
2023-01-22T07:23:35.013Z,-0.23
2023-01-22T07:26:04.995Z,-0.30
2023-01-22T07:28:33.454Z,-0.34
2023-01-22T07:31:03.407Z,-0.31
2023-01-22T07:33:32.277Z,-0.21
2023-01-22T07:36:00.699Z,-0.39
2023-01-22T07:38:29.809Z,-0.22
2023-01-22T07:41:01.833Z,-0.29
2023-01-22T07:43:33.246Z,-0.22
2023-01-22T07:46:02.560Z,-0.22
2023-01-22T07:48:31.278Z,-0.26
2023-01-22T07:51:00.663Z,-0.23
2023-01-22T07:53:29.225Z,-0.18
2023-01-22T07:55:57.675Z,-0.14
2023-01-22T07:58:26.291Z,-0.19
2023-01-22T08:00:56.169Z,-0.07
2023-01-22T08:03:24.631Z,-0.05
2023-01-22T08:05:53.087Z,-0.07
2023-01-22T08:08:21.577Z,-0.05
2023-01-22T08:10:50.869Z,-0.06
2023-01-22T08:13:19.321Z,-0.07
2023-01-22T08:15:47.833Z,0.08
2023-01-22T08:18:19.640Z,0.00
2023-01-22T08:20:49.136Z,0.03
2023-01-22T08:23:17.722Z,-0.02
2023-01-22T08:25:46.225Z,-0.03
2023-01-22T08:28:15.019Z,0.04
2023-01-22T08:30:46.812Z,0.06
2023-01-22T08:33:17.156Z,0.06
2023-01-22T08:35:45.880Z,0.12
2023-01-22T08:38:14.336Z,0.16
2023-01-22T08:40:42.768Z,0.11
2023-01-22T08:43:11.223Z,0.05
2023-01-22T08:45:39.965Z,0.08
2023-01-22T08:48:08.529Z,0.06
2023-01-22T08:50:38.619Z,0.09
2023-01-22T08:53:07.099Z,0.27
2023-01-22T08:55:35.584Z,0.32
2023-01-22T08:58:04.264Z,0.25
2023-01-22T09:00:33.054Z,0.29
2023-01-22T09:03:01.644Z,0.37
2023-01-22T09:05:30.234Z,0.28
2023-01-22T09:07:59.976Z,0.35
2023-01-22T09:10:28.563Z,0.43
2023-01-22T09:13:00.007Z,0.53
2023-01-22T09:15:28.655Z,0.61
2023-01-22T09:17:57.215Z,0.60
2023-01-22T09:20:26.033Z,0.69
2023-01-22T09:22:54.490Z,0.70
2023-01-22T09:25:24.298Z,0.79
2023-01-22T09:27:58.540Z,0.78
2023-01-22T09:30:27.736Z,0.82
2023-01-22T09:32:59.293Z,0.90
2023-01-22T09:35:28.803Z,0.85
2023-01-22T09:37:58.178Z,0.96
2023-01-22T09:40:32.023Z,0.86
2023-01-22T09:43:07.219Z,0.81
2023-01-22T09:45:41.941Z,0.86
2023-01-22T09:48:16.093Z,0.85
2023-01-22T09:50:45.793Z,0.85
2023-01-22T09:53:18.846Z,0.86
2023-01-22T09:55:52.003Z,0.92
2023-01-22T09:58:23.929Z,0.98
2023-01-22T10:00:56.245Z,1.21
2023-01-22T10:03:29.661Z,1.17
2023-01-22T10:06:02.081Z,1.24
2023-01-22T10:08:34.196Z,1.33
2023-01-22T10:11:04.927Z,1.47
2023-01-22T10:13:35.759Z,1.53
2023-01-22T10:16:05.501Z,1.48
2023-01-22T10:18:38.618Z,1.58
2023-01-22T10:21:18.844Z,1.66
2023-01-22T10:23:48.853Z,1.62
2023-01-22T10:26:24.978Z,1.61
2023-01-22T10:28:57.575Z,1.56
2023-01-22T10:31:29.282Z,1.48
2023-01-22T10:33:59.596Z,1.54
2023-01-22T10:36:28.760Z,1.55
2023-01-22T10:39:05.626Z,1.49
2023-01-22T10:41:35.580Z,1.39
2023-01-22T10:44:25.665Z,1.37
2023-01-22T10:46:56.677Z,1.34
2023-01-22T10:49:26.585Z,1.35
2023-01-22T10:51:56.949Z,1.28
2023-01-22T10:54:31.803Z,1.28
2023-01-22T10:57:19.977Z,1.44
2023-01-22T10:59:50.463Z,1.48
2023-01-22T11:02:24.361Z,1.50
2023-01-22T11:04:53.605Z,1.61
2023-01-22T11:07:27.295Z,1.59
2023-01-22T11:10:04.659Z,1.57
2023-01-22T11:12:39.197Z,1.74
2023-01-22T11:15:19.544Z,1.90
2023-01-22T11:17:52.470Z,2.04
2023-01-22T11:20:26.232Z,1.90
2023-01-22T11:23:04.753Z,2.01
2023-01-22T11:25:42.058Z,2.12
2023-01-22T11:28:23.833Z,2.19
2023-01-22T11:31:17.754Z,2.32
2023-01-22T11:34:20.336Z,2.57
2023-01-22T11:36:59.755Z,2.73
2023-01-22T11:39:44.519Z,2.65
2023-01-22T11:42:27.931Z,2.65
2023-01-22T11:45:11.496Z,2.68
2023-01-22T11:48:04.817Z,2.80
2023-01-22T11:50:43.077Z,2.60
2023-01-22T11:53:27.091Z,2.73
2023-01-22T11:56:14.882Z,2.61
2023-01-22T11:58:52.968Z,2.49
2023-01-22T12:01:38.257Z,2.50
2023-01-22T12:04:34.318Z,2.68
2023-01-22T12:07:32.332Z,2.86
2023-01-22T12:10:19.958Z,2.69
2023-01-22T12:12:56.279Z,2.63
2023-01-22T12:15:41.059Z,2.48
2023-01-22T12:18:35.169Z,2.35
2023-01-22T12:21:09.551Z,2.34
2023-01-22T12:23:44.365Z,2.32
2023-01-22T12:26:18.473Z,2.23
2023-01-22T12:28:51.837Z,2.18
2023-01-22T12:31:28.512Z,2.14
2023-01-22T12:34:03.047Z,2.05
2023-01-22T12:36:33.527Z,1.94
2023-01-22T12:39:10.773Z,1.97
2023-01-22T12:41:50.480Z,1.95
2023-01-22T12:44:30.140Z,2.03
2023-01-22T12:47:06.906Z,1.98
2023-01-22T12:49:46.028Z,2.20
2023-01-22T12:52:42.569Z,2.07
2023-01-22T12:55:30.851Z,2.13
2023-01-22T12:57:59.782Z,2.06
2023-01-22T13:00:34.552Z,1.95
2023-01-22T13:03:05.475Z,2.04
2023-01-22T13:05:42.170Z,2.11
2023-01-22T13:08:27.550Z,1.86
2023-01-22T13:10:58.269Z,1.80
2023-01-22T13:13:31.086Z,1.86
2023-01-22T13:16:03.863Z,2.03
2023-01-22T13:18:36.664Z,2.00
2023-01-22T13:21:09.971Z,1.97
2023-01-22T13:23:43.134Z,2.03
2023-01-22T13:26:18.703Z,2.18
2023-01-22T13:28:56.902Z,2.34
2023-01-22T13:31:26.470Z,2.44
2023-01-22T13:33:57.451Z,2.50
2023-01-22T13:36:29.238Z,2.36
2023-01-22T13:39:00.360Z,2.29
2023-01-22T13:41:32.426Z,2.26
2023-01-22T13:44:02.474Z,2.19
2023-01-22T13:46:31.453Z,2.11
2023-01-22T13:49:06.361Z,2.04
2023-01-22T13:51:37.188Z,2.03
2023-01-22T13:54:07.127Z,2.04
2023-01-22T13:56:36.091Z,1.99
2023-01-22T13:59:17.433Z,2.07
2023-01-22T14:01:47.315Z,2.02
2023-01-22T14:04:34.349Z,2.06
2023-01-22T14:07:04.936Z,1.99
2023-01-22T14:09:35.366Z,1.95
2023-01-22T14:12:15.225Z,1.96
2023-01-22T14:14:44.219Z,1.94
2023-01-22T14:17:28.700Z,1.98
2023-01-22T14:19:57.988Z,1.92
2023-01-22T14:22:28.292Z,1.91
2023-01-22T14:24:57.016Z,1.85
2023-01-22T14:27:28.800Z,1.87
2023-01-22T14:29:57.467Z,1.88
2023-01-22T14:32:26.692Z,1.78
2023-01-22T14:34:55.325Z,1.78
2023-01-22T14:37:23.818Z,1.69
2023-01-22T14:39:53.716Z,1.61
2023-01-22T14:42:26.477Z,1.60
2023-01-22T14:44:55.549Z,1.61
2023-01-22T14:47:25.512Z,1.64
2023-01-22T14:49:54.145Z,1.62
2023-01-22T14:52:22.589Z,1.57
2023-01-22T14:54:52.814Z,1.63
2023-01-22T14:57:21.394Z,1.55
2023-01-22T14:59:49.843Z,1.52
2023-01-22T15:02:20.475Z,1.50
2023-01-22T15:04:51.398Z,1.51
2023-01-22T15:07:23.337Z,1.55
2023-01-22T15:09:54.252Z,1.57
2023-01-22T15:12:25.201Z,1.51
2023-01-22T15:14:56.088Z,1.44
2023-01-22T15:17:25.507Z,1.47
2023-01-22T15:19:53.976Z,1.50
2023-01-22T15:22:22.857Z,1.46
2023-01-22T15:24:51.381Z,1.33
2023-01-22T15:27:22.909Z,1.28
2023-01-22T15:29:51.693Z,1.38
2023-01-22T15:32:22.423Z,1.30
2023-01-22T15:34:52.036Z,1.37
2023-01-22T15:37:21.255Z,1.40
2023-01-22T15:39:54.158Z,1.41
2023-01-22T15:42:28.931Z,1.33
2023-01-22T15:44:58.546Z,1.31
2023-01-22T15:47:27.835Z,1.28
2023-01-22T15:50:02.634Z,1.26
2023-01-22T15:52:31.355Z,1.30
2023-01-22T15:55:01.549Z,1.28
2023-01-22T15:57:36.876Z,1.26
2023-01-22T16:00:07.766Z,1.33
2023-01-22T16:02:36.770Z,1.23
2023-01-22T16:05:09.396Z,1.14
2023-01-22T16:07:41.483Z,1.14
2023-01-22T16:10:17.342Z,1.17
2023-01-22T16:12:55.187Z,1.17
2023-01-22T16:15:32.357Z,1.22
2023-01-22T16:18:09.863Z,1.14
2023-01-22T16:20:40.767Z,1.15
2023-01-22T16:23:11.079Z,1.19
2023-01-22T16:25:42.004Z,1.19
2023-01-22T16:28:13.234Z,1.22
2023-01-22T16:30:43.042Z,1.31
2023-01-22T16:33:30.297Z,1.22
2023-01-22T16:36:01.030Z,1.10
2023-01-22T16:38:42.205Z,0.99
2023-01-22T16:41:25.098Z,1.00
2023-01-22T16:43:59.004Z,1.10
2023-01-22T16:46:33.415Z,1.09
2023-01-22T16:49:09.051Z,1.06
2023-01-22T16:51:40.904Z,1.05
2023-01-22T16:54:22.978Z,1.10
2023-01-22T16:57:03.468Z,1.10
2023-01-22T16:59:36.657Z,1.17
2023-01-22T17:02:09.181Z,1.14
2023-01-22T17:04:46.108Z,1.14
2023-01-22T17:07:32.291Z,1.08
2023-01-22T17:10:03.331Z,1.28
2023-01-22T17:12:31.903Z,1.24
2023-01-22T17:15:02.207Z,1.22
2023-01-22T17:17:33.671Z,1.18
2023-01-22T17:20:03.351Z,1.28
2023-01-22T17:22:36.107Z,1.24
2023-01-22T17:25:06.736Z,1.16
2023-01-22T17:27:36.427Z,1.21
2023-01-22T17:30:09.728Z,1.14
2023-01-22T17:32:39.952Z,1.20
2023-01-22T17:35:10.271Z,1.21
2023-01-22T17:37:39.436Z,1.19
2023-01-22T17:40:10.118Z,1.15
2023-01-22T17:42:38.877Z,1.19
2023-01-22T17:45:11.667Z,1.22
2023-01-22T17:47:46.703Z,1.28
2023-01-22T17:50:17.215Z,1.30
2023-01-22T17:52:46.177Z,1.24
2023-01-22T17:55:15.076Z,1.33
2023-01-22T17:57:43.671Z,1.26
2023-01-22T18:00:17.577Z,1.19
2023-01-22T18:02:46.524Z,1.27
2023-01-22T18:05:15.593Z,1.30
2023-01-22T18:07:44.438Z,1.37
2023-01-22T18:10:14.501Z,1.31
2023-01-22T18:12:44.442Z,1.24
2023-01-22T18:15:14.823Z,1.27
2023-01-22T18:17:48.544Z,1.25
2023-01-22T18:20:18.076Z,1.18
2023-01-22T18:22:46.956Z,1.26
2023-01-22T18:25:15.964Z,1.27
2023-01-22T18:27:44.824Z,1.36
2023-01-22T18:30:22.933Z,1.36
2023-01-22T18:32:52.216Z,1.27
2023-01-22T18:35:21.204Z,1.30
2023-01-22T18:37:54.785Z,1.43
2023-01-22T18:40:27.305Z,1.35
2023-01-22T18:42:56.283Z,1.24
2023-01-22T18:45:27.249Z,1.23
2023-01-22T18:47:56.825Z,1.34
2023-01-22T18:50:25.925Z,1.26
2023-01-22T18:52:54.675Z,1.29
2023-01-22T18:55:23.694Z,1.37
2023-01-22T18:57:56.880Z,1.33
2023-01-22T19:00:27.294Z,1.41
2023-01-22T19:02:56.822Z,1.41
2023-01-22T19:05:28.131Z,1.35
2023-01-22T19:07:57.251Z,1.46
2023-01-22T19:10:27.987Z,1.38
2023-01-22T19:12:56.964Z,1.38
2023-01-22T19:15:27.190Z,1.44
2023-01-22T19:17:55.880Z,1.42
2023-01-22T19:20:24.610Z,1.37
2023-01-22T19:22:53.258Z,1.30
2023-01-22T19:25:21.914Z,1.32
2023-01-22T19:27:50.424Z,1.34
2023-01-22T19:30:19.402Z,1.39
2023-01-22T19:32:49.463Z,1.32
2023-01-22T19:35:20.230Z,1.26
2023-01-22T19:37:49.183Z,1.32
2023-01-22T19:40:18.280Z,1.33
2023-01-22T19:42:47.457Z,1.34
2023-01-22T19:45:17.261Z,1.33
2023-01-22T19:47:46.068Z,1.34
2023-01-22T19:50:16.648Z,1.39
2023-01-22T19:52:45.250Z,1.30
2023-01-22T19:55:13.868Z,1.18
2023-01-22T19:57:42.343Z,1.31
2023-01-22T20:00:12.866Z,1.22
2023-01-22T20:02:41.700Z,1.29
2023-01-22T20:05:10.745Z,1.25
2023-01-22T20:07:42.280Z,1.38
2023-01-22T20:10:13.972Z,1.40
2023-01-22T20:12:43.344Z,1.39
2023-01-22T20:15:14.022Z,1.32
2023-01-22T20:17:44.115Z,1.31
2023-01-22T20:20:13.327Z,1.31
2023-01-22T20:22:43.169Z,1.35
2023-01-22T20:25:11.844Z,1.39
2023-01-22T20:27:40.563Z,1.41
2023-01-22T20:30:10.395Z,1.46
2023-01-22T20:32:38.937Z,1.36
2023-01-22T20:35:08.178Z,1.50
2023-01-22T20:37:36.806Z,1.47
2023-01-22T20:40:08.044Z,1.44
2023-01-22T20:42:36.768Z,1.46
2023-01-22T20:45:06.708Z,1.48
2023-01-22T20:47:35.798Z,1.51
2023-01-22T20:50:05.537Z,1.46
2023-01-22T20:52:34.240Z,1.36
2023-01-22T20:55:03.372Z,1.34
2023-01-22T20:57:33.361Z,1.47
2023-01-22T21:00:01.945Z,1.50
2023-01-22T21:02:30.532Z,1.46
2023-01-22T21:04:59.675Z,1.42
2023-01-22T21:07:28.480Z,1.39
2023-01-22T21:09:57.092Z,1.46
2023-01-22T21:12:25.921Z,1.43
2023-01-22T21:14:57.096Z,1.45
2023-01-22T21:17:25.676Z,1.44
2023-01-22T21:19:55.484Z,1.42
2023-01-22T21:22:26.208Z,1.37
2023-01-22T21:24:56.645Z,1.39
2023-01-22T21:27:26.094Z,1.50
2023-01-22T21:29:57.942Z,1.54
2023-01-22T21:32:30.538Z,1.50
2023-01-22T21:34:59.621Z,1.51
2023-01-22T21:37:28.244Z,1.58
2023-01-22T21:39:56.822Z,1.56
2023-01-22T21:42:42.973Z,1.57
2023-01-22T21:45:36.443Z,1.50
2023-01-22T21:48:24.351Z,1.52
2023-01-22T21:50:56.235Z,1.49
2023-01-22T21:53:24.735Z,1.51
2023-01-22T21:55:54.069Z,1.46
2023-01-22T21:58:22.819Z,1.49
2023-01-22T22:00:54.704Z,1.57
2023-01-22T22:03:23.485Z,1.47
2023-01-22T22:05:57.003Z,1.43
2023-01-22T22:08:25.898Z,1.41
2023-01-22T22:10:54.910Z,1.50
2023-01-22T22:13:23.385Z,1.49
2023-01-22T22:15:53.289Z,1.43
2023-01-22T22:18:21.824Z,1.41
2023-01-22T22:20:50.417Z,1.43
2023-01-22T22:23:18.839Z,1.39
2023-01-22T22:25:47.978Z,1.60
2023-01-22T22:28:17.633Z,1.59
2023-01-22T22:30:46.543Z,1.65
2023-01-22T22:33:16.894Z,1.58
2023-01-22T22:35:46.336Z,1.62
2023-01-22T22:38:15.593Z,1.57
2023-01-22T22:40:44.311Z,1.63
2023-01-22T22:43:12.831Z,1.61
2023-01-22T22:45:41.568Z,1.63
2023-01-22T22:48:10.047Z,1.64
2023-01-22T22:50:42.916Z,1.61
2023-01-22T22:53:11.844Z,1.58
2023-01-22T22:55:42.050Z,1.64
2023-01-22T22:58:10.574Z,1.62
2023-01-22T23:00:40.063Z,1.59
2023-01-22T23:03:08.771Z,1.72
2023-01-22T23:05:37.974Z,1.62
2023-01-22T23:08:08.085Z,1.55
2023-01-22T23:10:38.892Z,1.49
2023-01-22T23:13:07.745Z,1.45
2023-01-22T23:15:36.135Z,1.38
2023-01-22T23:18:04.747Z,1.45
2023-01-22T23:20:33.239Z,1.51
2023-01-22T23:23:01.760Z,1.60
2023-01-22T23:25:31.730Z,1.61
2023-01-22T23:28:00.167Z,1.54
2023-01-22T23:30:28.576Z,1.59
2023-01-22T23:32:57.061Z,1.47
2023-01-22T23:35:25.525Z,1.49
2023-01-22T23:37:54.156Z,1.48
2023-01-22T23:40:22.580Z,1.46
2023-01-22T23:42:52.383Z,1.52
2023-01-22T23:45:20.859Z,1.50
2023-01-22T23:47:49.311Z,1.51
2023-01-22T23:50:18.278Z,1.45
2023-01-22T23:52:47.547Z,1.58
2023-01-22T23:55:15.997Z,1.55
2023-01-22T23:57:44.465Z,1.51
